createdAt,value
2019-01-18T00:01:10.177Z,95175.97
2019-01-18T00:03:44.015Z,95180.93
2019-01-18T00:06:15.071Z,95191.14
2019-01-18T00:08:51.401Z,95186.19
2019-01-18T00:11:22.574Z,95186.78
2019-01-18T00:13:57.512Z,95193.55
2019-01-18T00:16:28.635Z,95195.47
2019-01-18T00:18:59.501Z,95198.51
2019-01-18T00:21:32.694Z,95205.59
2019-01-18T00:24:06.549Z,95204.36
2019-01-18T00:26:37.630Z,95205.02
2019-01-18T00:29:08.385Z,95205.97
2019-01-18T00:31:39.816Z,95213.67
2019-01-18T00:34:10.875Z,95213.97
2019-01-18T00:36:41.697Z,95215.44
2019-01-18T00:39:12.507Z,95219.73
2019-01-18T00:41:43.887Z,95213.08
2019-01-18T00:44:14.723Z,95221.77
2019-01-18T00:46:45.487Z,95224.13
2019-01-18T00:49:16.464Z,95228.42
2019-01-18T00:51:47.444Z,95228.42
2019-01-18T00:54:18.181Z,95236.81
2019-01-18T00:56:50.683Z,95236.39
2019-01-18T00:59:23.062Z,95241.48
2019-01-18T01:01:53.914Z,95249.04
2019-01-18T01:04:25.082Z,95241.75
2019-01-18T01:06:55.844Z,95246.27
2019-01-18T01:09:30.969Z,95253.94
2019-01-18T01:12:01.973Z,95254.38
2019-01-18T01:14:34.906Z,95253.13
2019-01-18T01:17:06.200Z,95257.96
2019-01-18T01:19:36.978Z,95264.70
2019-01-18T01:22:07.790Z,95266.73
2019-01-18T01:24:44.634Z,95269.78
2019-01-18T01:27:15.775Z,95278.27
2019-01-18T01:29:46.564Z,95287.31
2019-01-18T01:32:18.214Z,95285.34
2019-01-18T01:34:48.998Z,95295.94
2019-01-18T01:37:19.773Z,95299.08
2019-01-18T01:39:50.586Z,95305.28
2019-01-18T01:42:22.500Z,95303.31
2019-01-18T01:44:53.237Z,95311.91
2019-01-18T01:47:24.036Z,95316.72
2019-01-18T01:49:54.838Z,95313.59
2019-01-18T01:52:25.659Z,95316.22
2019-01-18T01:54:56.495Z,95313.67
2019-01-18T01:57:27.307Z,95319.23
2019-01-18T01:59:58.460Z,95321.05
2019-01-18T02:02:29.668Z,95324.61
2019-01-18T02:05:01.185Z,95329.36
2019-01-18T02:07:32.050Z,95333.98
2019-01-18T02:10:02.890Z,95320.96
2019-01-18T02:12:33.706Z,95336.67
2019-01-18T02:15:05.349Z,95339.06
2019-01-18T02:17:36.084Z,95340.67
2019-01-18T02:20:08.037Z,95339.80
2019-01-18T02:22:40.481Z,95349.42
2019-01-18T02:25:11.258Z,95348.22
2019-01-18T02:27:42.084Z,95349.72
2019-01-18T02:30:15.974Z,95352.73
2019-01-18T02:32:46.827Z,95358.56
2019-01-18T02:35:17.588Z,95363.75
2019-01-18T02:37:48.423Z,95363.16
2019-01-18T02:40:19.332Z,95366.38
2019-01-18T02:42:51.638Z,95374.47
2019-01-18T02:45:27.434Z,95370.23
2019-01-18T02:47:58.673Z,95368.11
2019-01-18T02:50:30.837Z,95374.89
2019-01-18T02:53:03.194Z,95369.33
2019-01-18T02:55:34.284Z,95369.33
2019-01-18T02:58:05.534Z,95373.98
2019-01-18T03:00:36.390Z,95377.52
2019-01-18T03:03:07.284Z,95377.09
2019-01-18T03:05:38.057Z,95382.66
2019-01-18T03:08:09.169Z,95377.09
2019-01-18T03:10:40.406Z,95379.03
2019-01-18T03:13:12.151Z,95388.02
2019-01-18T03:15:43.322Z,95386.62
2019-01-18T03:18:14.126Z,95390.26
2019-01-18T03:20:46.277Z,95387.06
2019-01-18T03:23:17.341Z,95392.22
2019-01-18T03:25:48.143Z,95390.61
2019-01-18T03:28:18.872Z,95391.32
2019-01-18T03:30:52.842Z,95392.31
2019-01-18T03:33:23.692Z,95399.45
2019-01-18T03:35:55.941Z,95399.45
2019-01-18T03:38:27.099Z,95413.40
2019-01-18T03:40:57.933Z,95413.34
2019-01-18T03:43:28.750Z,95417.48
2019-01-18T03:45:59.552Z,95428.36
2019-01-18T03:48:31.387Z,95432.59
2019-01-18T03:51:02.247Z,95427.19
2019-01-18T03:53:33.028Z,95432.44
2019-01-18T03:56:03.848Z,95432.59
2019-01-18T03:58:35.042Z,95433.50
2019-01-18T04:01:06.345Z,95439.06
2019-01-18T04:03:43.912Z,95455.46
2019-01-18T04:06:18.485Z,95459.60
2019-01-18T04:08:49.895Z,95466.27
2019-01-18T04:11:21.174Z,95461.72
2019-01-18T04:13:55.333Z,95466.54
2019-01-18T04:16:26.719Z,95468.59
2019-01-18T04:18:59.312Z,95476.84
2019-01-18T04:21:30.430Z,95478.66
2019-01-18T04:24:12.324Z,95482.30
2019-01-18T04:26:48.649Z,95490.48
2019-01-18T04:29:19.439Z,95488.97
2019-01-18T04:31:50.244Z,95488.59
2019-01-18T04:34:21.285Z,95495.67
2019-01-18T04:36:52.390Z,95500.92
2019-01-18T04:39:23.105Z,95504.25
2019-01-18T04:41:54.273Z,95510.31
2019-01-18T04:44:25.767Z,95510.82
2019-01-18T04:46:56.524Z,95517.79
2019-01-18T04:49:27.361Z,95516.67
2019-01-18T04:51:58.438Z,95521.86
2019-01-18T04:54:29.916Z,95522.44
2019-01-18T04:57:00.735Z,95526.68
2019-01-18T04:59:36.001Z,95528.33
2019-01-18T05:02:06.854Z,95537.99
2019-01-18T05:04:39.405Z,95545.27
2019-01-18T05:07:10.614Z,95545.06
2019-01-18T05:09:41.466Z,95550.42
2019-01-18T05:12:12.291Z,95559.61
2019-01-18T05:14:43.164Z,95564.95
2019-01-18T05:17:14.150Z,95569.13
2019-01-18T05:19:49.383Z,95573.07
2019-01-18T05:22:20.146Z,95578.09
2019-01-18T05:24:51.079Z,95587.09
2019-01-18T05:27:22.153Z,95590.14
2019-01-18T05:29:52.959Z,95593.47
2019-01-18T05:32:26.363Z,95601.15
2019-01-18T05:35:06.289Z,95603.17
2019-01-18T05:38:00.409Z,95601.22
2019-01-18T05:40:31.426Z,95610.83
2019-01-18T05:43:06.532Z,95612.66
2019-01-18T05:45:37.502Z,95623.16
2019-01-18T05:48:09.019Z,95628.70
2019-01-18T05:50:43.195Z,95630.12
2019-01-18T05:53:16.611Z,95647.50
2019-01-18T05:55:48.998Z,95657.20
2019-01-18T05:58:21.383Z,95654.39
2019-01-18T06:01:05.315Z,95669.62
2019-01-18T06:03:36.114Z,95673.27
2019-01-18T06:06:07.113Z,95678.11
2019-01-18T06:08:38.051Z,95682.75
2019-01-18T06:11:08.846Z,95689.51
2019-01-18T06:13:39.687Z,95687.61
2019-01-18T06:16:10.732Z,95693.87
2019-01-18T06:18:42.761Z,95695.26
2019-01-18T06:21:13.584Z,95700.52
2019-01-18T06:23:44.407Z,95699.20
2019-01-18T06:26:15.149Z,95707.16
2019-01-18T06:28:45.963Z,95716.96
2019-01-18T06:31:17.107Z,95717.16
2019-01-18T06:33:47.876Z,95727.77
2019-01-18T06:36:20.664Z,95733.33
2019-01-18T06:38:51.826Z,95739.08
2019-01-18T06:41:57.156Z,95747.66
2019-01-18T06:44:28.166Z,95746.54
2019-01-18T06:47:04.510Z,95752.52
2019-01-18T06:49:42.445Z,95757.84
2019-01-18T06:52:13.248Z,95759.27
2019-01-18T06:54:44.098Z,95768.35
2019-01-18T06:57:15.437Z,95775.64
2019-01-18T06:59:46.198Z,95787.96
2019-01-18T07:02:20.380Z,95788.46
2019-01-18T07:04:51.214Z,95799.84
2019-01-18T07:07:23.553Z,95798.46
2019-01-18T07:10:03.978Z,95811.89
2019-01-18T07:12:34.831Z,95814.33
2019-01-18T07:15:06.307Z,95818.58
2019-01-18T07:17:38.731Z,95828.16
2019-01-18T07:20:11.893Z,95827.97
2019-01-18T07:22:42.889Z,95836.73
2019-01-18T07:25:16.810Z,95839.16
2019-01-18T07:27:54.440Z,95850.04
2019-01-18T07:30:27.740Z,95849.23
2019-01-18T07:32:58.577Z,95856.02
2019-01-18T07:35:29.927Z,95859.54
2019-01-18T07:38:00.678Z,95858.09
2019-01-18T07:40:34.734Z,95864.03
2019-01-18T07:43:08.814Z,95869.91
2019-01-18T07:45:39.845Z,95878.37
2019-01-18T07:48:10.679Z,95882.02
2019-01-18T07:50:41.489Z,95885.46
2019-01-18T07:53:12.371Z,95887.59
2019-01-18T07:55:43.455Z,95892.05
2019-01-18T07:58:23.708Z,95893.59
2019-01-18T08:01:02.809Z,95896.03
2019-01-18T08:04:08.352Z,95906.74
2019-01-18T08:06:46.718Z,95916.98
2019-01-18T08:09:31.232Z,95925.31
2019-01-18T08:12:03.538Z,95933.86
2019-01-18T08:14:34.425Z,95943.28
2019-01-18T08:17:05.796Z,95952.88
2019-01-18T08:19:41.121Z,95969.31
2019-01-18T08:22:13.495Z,95966.06
2019-01-18T08:24:44.504Z,95976.31
2019-01-18T08:27:27.933Z,95977.91
2019-01-18T08:29:58.756Z,95990.93
2019-01-18T08:32:33.572Z,95995.55
2019-01-18T08:35:06.048Z,96002.08
2019-01-18T08:37:36.876Z,96007.73
2019-01-18T08:40:11.654Z,96016.30
2019-01-18T08:42:45.202Z,96019.98
2019-01-18T08:45:22.282Z,96027.67
2019-01-18T08:47:53.108Z,96035.11
2019-01-18T08:50:27.895Z,96043.61
2019-01-18T08:52:59.140Z,96045.55
2019-01-18T08:55:36.290Z,96053.98
2019-01-18T08:58:07.356Z,96054.34
2019-01-18T09:00:40.088Z,96060.59
2019-01-18T09:03:12.888Z,96068.46
2019-01-18T09:05:43.706Z,96068.56
2019-01-18T09:08:14.795Z,96069.05
2019-01-18T09:10:50.208Z,96075.80
2019-01-18T09:13:22.906Z,96080.42
2019-01-18T09:15:53.659Z,96090.50
2019-01-18T09:18:24.475Z,96097.92
2019-01-18T09:20:55.659Z,96106.56
2019-01-18T09:23:26.483Z,96111.13
2019-01-18T09:26:08.248Z,96117.42
2019-01-18T09:28:41.146Z,96121.72
2019-01-18T09:31:15.389Z,96127.11
2019-01-18T09:33:49.019Z,96126.34
2019-01-18T09:36:21.407Z,96128.42
2019-01-18T09:38:55.904Z,96131.41
2019-01-18T09:41:33.544Z,96131.77
2019-01-18T09:44:08.077Z,96136.84
2019-01-18T09:46:39.158Z,96136.66
2019-01-18T09:49:13.226Z,96141.09
2019-01-18T09:51:51.864Z,96144.84
2019-01-18T09:54:24.822Z,96144.84
2019-01-18T09:56:56.336Z,96146.21
2019-01-18T09:59:27.535Z,96151.41
2019-01-18T10:01:58.451Z,96158.47
2019-01-18T10:04:29.277Z,96165.89
2019-01-18T10:07:05.653Z,96170.59
2019-01-18T10:09:36.893Z,96170.75
2019-01-18T10:12:07.687Z,96168.84
2019-01-18T10:14:50.393Z,96177.55
2019-01-18T10:17:22.526Z,96178.12
2019-01-18T10:19:54.364Z,96179.88
2019-01-18T10:22:25.306Z,96183.00
2019-01-18T10:28:24.806Z,96183.66
2019-01-18T10:30:55.795Z,96175.75
2019-01-18T10:33:36.874Z,96176.12
2019-01-18T10:36:08.444Z,96183.89
2019-01-18T10:38:39.447Z,96185.39
2019-01-18T10:41:12.242Z,96189.45
2019-01-18T10:43:44.732Z,96197.53
2019-01-18T10:46:15.839Z,96186.84
2019-01-18T10:48:46.637Z,96192.88
2019-01-18T10:51:17.926Z,96197.34
2019-01-18T10:53:52.426Z,96209.73
2019-01-18T10:56:29.189Z,96203.16
2019-01-18T10:59:00.179Z,96198.10
2019-01-18T11:01:34.187Z,96203.59
2019-01-18T11:04:05.053Z,96196.04
2019-01-18T11:06:37.967Z,96198.61
2019-01-18T11:09:10.782Z,96193.14
2019-01-18T11:11:50.723Z,96190.05
2019-01-18T11:14:25.666Z,96185.42
2019-01-18T11:16:57.001Z,96183.48
2019-01-18T11:19:28.239Z,96184.94
2019-01-18T11:22:06.745Z,96177.38
2019-01-18T11:24:45.195Z,96178.39
2019-01-18T11:27:24.481Z,96184.24
2019-01-18T11:30:01.764Z,96178.51
2019-01-18T11:32:34.035Z,96173.84
2019-01-18T11:35:06.114Z,96181.13
2019-01-18T11:37:36.915Z,96181.30
2019-01-18T11:40:13.800Z,96182.59
2019-01-18T11:42:45.769Z,96181.14
2019-01-18T11:45:18.391Z,96181.71
2019-01-18T11:47:51.962Z,96187.97
2019-01-18T11:50:27.151Z,96180.52
2019-01-18T11:52:58.001Z,96189.98
2019-01-18T11:55:34.524Z,96189.64
2019-01-18T11:58:07.141Z,96190.55
2019-01-18T12:00:38.108Z,96194.20
2019-01-18T12:03:31.254Z,96185.31
2019-01-18T12:06:04.962Z,96177.16
2019-01-18T12:08:35.966Z,96173.42
2019-01-18T12:11:13.796Z,96175.48
2019-01-18T12:13:45.025Z,96170.62
2019-01-18T12:16:17.625Z,96173.19
2019-01-18T12:18:52.032Z,96173.59
2019-01-18T12:21:22.751Z,96168.78
2019-01-18T12:24:02.973Z,96164.77
2019-01-18T12:26:33.952Z,96175.66
2019-01-18T12:29:04.756Z,96167.63
2019-01-18T12:31:37.235Z,96165.41
2019-01-18T12:34:12.452Z,96165.83
2019-01-18T12:36:50.293Z,96172.99
2019-01-18T12:39:23.088Z,96176.34
2019-01-18T12:41:59.508Z,96173.25
2019-01-18T12:44:37.200Z,96176.09
2019-01-18T12:47:10.476Z,96179.47
2019-01-18T12:49:49.224Z,96176.78
2019-01-18T12:52:21.494Z,96177.63
2019-01-18T12:54:56.151Z,96187.48
2019-01-18T12:57:35.934Z,96192.27
2019-01-18T13:00:14.082Z,96193.78
2019-01-18T13:02:47.184Z,96194.53
2019-01-18T13:05:21.402Z,96198.22
2019-01-18T13:07:52.546Z,96201.20
2019-01-18T13:10:23.690Z,96211.33
2019-01-18T13:13:00.749Z,96212.13
2019-01-18T13:15:41.376Z,96207.70
2019-01-18T13:18:14.189Z,96204.98
2019-01-18T13:20:58.060Z,96208.50
2019-01-18T13:23:28.520Z,96209.09
2019-01-18T13:26:30.037Z,96202.21
2019-01-18T13:29:04.328Z,96198.86
2019-01-18T13:31:37.097Z,96197.60
2019-01-18T13:34:07.950Z,96197.23
2019-01-18T13:36:44.019Z,96196.60
2019-01-18T13:39:27.455Z,96200.82
2019-01-18T13:42:02.669Z,96192.45
2019-01-18T13:44:33.495Z,96192.46
2019-01-18T13:47:04.592Z,96205.86
2019-01-18T13:49:35.449Z,96210.48
2019-01-18T13:52:07.939Z,96210.84
2019-01-18T13:54:38.918Z,96205.80
2019-01-18T13:57:12.248Z,96211.41
2019-01-18T13:59:42.510Z,96213.34
2019-01-18T14:02:18.235Z,96211.88
2019-01-18T14:05:11.268Z,96212.14
2019-01-18T14:07:46.490Z,96219.28
2019-01-18T14:10:25.832Z,96224.14
2019-01-18T14:12:57.341Z,96224.64
2019-01-18T14:15:30.868Z,96214.75
2019-01-18T14:18:02.099Z,96217.55
2019-01-18T14:20:33.405Z,96222.05
2019-01-18T14:23:04.221Z,96224.06
2019-01-18T14:25:35.061Z,96229.41
2019-01-18T14:28:11.053Z,96230.79
2019-01-18T14:30:41.840Z,96222.46
2019-01-18T14:33:13.931Z,96226.95
2019-01-18T14:35:45.496Z,96224.36
2019-01-18T14:38:16.310Z,96229.03
2019-01-18T14:40:50.742Z,96224.00
2019-01-18T14:43:24.951Z,96230.93
2019-01-18T14:45:58.467Z,96235.64
2019-01-18T14:48:29.612Z,96227.20
2019-01-18T14:51:01.522Z,96233.48
2019-01-18T14:53:34.973Z,96231.05
2019-01-18T14:56:06.145Z,96227.61
2019-01-18T14:58:37.606Z,96231.33
2019-01-18T15:01:12.766Z,96228.47
2019-01-18T15:03:44.193Z,96230.64
2019-01-18T15:06:16.973Z,96232.08
2019-01-18T15:08:48.448Z,96237.63
2019-01-18T15:11:21.969Z,96238.13
2019-01-18T15:13:56.992Z,96239.00
2019-01-18T15:16:36.258Z,96250.83
2019-01-18T15:19:07.978Z,96253.81
2019-01-18T15:21:43.089Z,96258.58
2019-01-18T15:24:15.410Z,96258.63
2019-01-18T15:26:46.421Z,96264.39
2019-01-18T15:29:22.666Z,96271.38
2019-01-18T15:31:54.134Z,96266.63
2019-01-18T15:34:49.704Z,96271.23
2019-01-18T15:37:45.046Z,96277.50
2019-01-18T15:40:19.768Z,96272.00
2019-01-18T15:43:02.669Z,96272.06
2019-01-18T15:45:33.525Z,96278.16
2019-01-18T15:48:15.948Z,96274.77
2019-01-18T15:50:50.720Z,96280.16
2019-01-18T15:53:21.812Z,96280.98
2019-01-18T15:55:53.470Z,96275.30
2019-01-18T15:58:24.343Z,96282.53
2019-01-18T16:00:55.606Z,96277.02
2019-01-18T16:03:33.927Z,96285.05
2019-01-18T16:06:08.349Z,96289.48
2019-01-18T16:08:42.463Z,96283.94
2019-01-18T16:11:13.620Z,96286.27
2019-01-18T16:13:57.039Z,96292.82
2019-01-18T16:16:42.705Z,96300.14
2019-01-18T16:19:19.261Z,96298.34
2019-01-18T16:21:50.493Z,96298.20
2019-01-18T16:24:23.509Z,96304.41
2019-01-18T16:26:58.248Z,96303.95
2019-01-18T16:29:36.742Z,96307.68
2019-01-18T16:32:07.867Z,96310.63
2019-01-18T16:34:39.795Z,96307.36
2019-01-18T16:37:27.127Z,96307.53
2019-01-18T16:39:59.808Z,96313.08
2019-01-18T16:42:37.923Z,96308.98
2019-01-18T16:45:10.532Z,96306.69
2019-01-18T16:47:41.461Z,96304.91
2019-01-18T16:50:15.954Z,96313.38
2019-01-18T16:52:48.910Z,96319.40
2019-01-18T16:55:27.450Z,96317.13
2019-01-18T16:58:04.351Z,96318.25
2019-01-18T17:00:42.820Z,96314.65
2019-01-18T17:03:30.251Z,96323.75
2019-01-18T17:06:08.615Z,96325.02
2019-01-18T17:08:43.286Z,96317.36
2019-01-18T17:11:22.723Z,96318.64
2019-01-18T17:14:01.574Z,96318.77
2019-01-18T17:16:57.451Z,96322.38
2019-01-18T17:19:28.474Z,96318.98
2019-01-18T17:22:02.705Z,96321.05
2019-01-18T17:24:36.907Z,96321.80
2019-01-18T17:27:08.430Z,96326.95
2019-01-18T17:30:16.269Z,96316.69
2019-01-18T17:32:52.106Z,96324.50
2019-01-18T17:35:53.500Z,96329.37
2019-01-18T17:39:59.319Z,96327.91
2019-01-18T17:42:57.939Z,96330.03
2019-01-18T17:46:02.668Z,96337.66
2019-01-18T17:49:07.267Z,96336.13
2019-01-18T17:56:09.221Z,96345.50
2019-01-18T17:59:16.428Z,96350.27
2019-01-18T18:02:40.042Z,96348.00
2019-01-18T18:05:50.214Z,96353.98
2019-01-18T18:08:55.770Z,96353.92
2019-01-18T18:12:20.206Z,96354.46
2019-01-18T18:15:49.047Z,96359.27
2019-01-18T18:18:51.820Z,96363.11
2019-01-18T18:21:54.175Z,96357.97
2019-01-18T18:24:50.446Z,96370.44
2019-01-18T18:28:08.439Z,96360.95
2019-01-18T18:31:03.969Z,96360.17
2019-01-18T18:34:23.453Z,96373.94
2019-01-18T18:37:04.167Z,96363.24
2019-01-18T18:40:23.049Z,96369.97
2019-01-18T18:43:29.881Z,96362.41
2019-01-18T18:46:43.980Z,96356.77
2019-01-18T18:49:58.748Z,96358.82
2019-01-18T18:53:11.625Z,96359.57
2019-01-18T18:56:05.104Z,96360.88
2019-01-18T18:59:29.067Z,96365.06
2019-01-18T19:03:03.203Z,96366.30
2019-01-18T19:06:10.042Z,96361.66
2019-01-18T19:09:36.075Z,96357.39
2019-01-18T19:13:06.376Z,96358.47
2019-01-18T19:16:39.048Z,96356.49
2019-01-18T19:19:38.438Z,96359.23
2019-01-18T19:23:05.403Z,96357.00
2019-01-18T19:26:27.985Z,96361.91
2019-01-18T19:29:54.738Z,96367.03
2019-01-18T19:33:03.399Z,96366.20
2019-01-18T19:36:15.421Z,96367.37
2019-01-18T19:39:27.970Z,96366.89
2019-01-18T19:43:16.029Z,96367.34
2019-01-18T19:46:31.072Z,96375.64
2019-01-18T19:49:45.984Z,96367.03
2019-01-18T19:53:06.557Z,96371.31
2019-01-18T19:56:23.683Z,96370.33
2019-01-18T19:59:36.041Z,96376.42
2019-01-18T20:02:53.300Z,96375.13
2019-01-18T20:06:15.044Z,96382.06
2019-01-18T20:09:41.808Z,96379.74
2019-01-18T20:12:45.412Z,96377.03
2019-01-18T20:19:51.995Z,96385.71
2019-01-18T20:22:50.260Z,96384.21
2019-01-18T20:25:40.054Z,96382.85
2019-01-18T20:29:04.668Z,96381.66
2019-01-18T20:32:37.489Z,96386.69
2019-01-18T20:35:34.186Z,96384.53
2019-01-18T20:39:09.998Z,96386.58
2019-01-18T20:42:34.094Z,96382.31
2019-01-18T20:45:45.059Z,96393.45
2019-01-18T20:48:41.162Z,96395.22
2019-01-18T20:52:16.446Z,96392.72
2019-01-18T20:55:17.553Z,96394.41
2019-01-18T20:58:22.254Z,96388.42
2019-01-18T21:01:50.648Z,96392.79
2019-01-18T21:04:55.965Z,96383.53
2019-01-18T21:07:55.293Z,96388.97
2019-01-18T21:11:29.723Z,96386.98
2019-01-18T21:14:45.568Z,96394.59
2019-01-18T21:18:16.783Z,96391.36
2019-01-18T21:21:28.843Z,96391.00
2019-01-18T21:24:31.234Z,96388.87
2019-01-18T21:27:42.921Z,96383.48
2019-01-18T21:31:13.058Z,96385.26
2019-01-18T21:34:18.792Z,96386.00
2019-01-18T21:37:56.191Z,96383.41
2019-01-18T21:41:03.667Z,96383.23
2019-01-18T21:44:23.915Z,96389.81
2019-01-18T21:47:31.109Z,96386.05
2019-01-18T21:50:55.229Z,96386.53
2019-01-18T21:53:53.372Z,96392.72
2019-01-18T21:56:47.798Z,96386.02
2019-01-18T21:59:47.458Z,96382.66
2019-01-18T22:02:33.114Z,96384.86
2019-01-18T22:05:25.033Z,96385.47
2019-01-18T22:08:24.232Z,96384.94
2019-01-18T22:11:46.409Z,96391.56
2019-01-18T22:14:51.998Z,96389.31
2019-01-18T22:18:11.706Z,96395.10
2019-01-18T22:21:25.131Z,96394.16
2019-01-18T22:24:25.644Z,96394.28
2019-01-18T22:27:36.461Z,96394.84
2019-01-18T22:30:36.143Z,96394.68
2019-01-18T22:33:35.606Z,96389.58
2019-01-18T22:36:38.782Z,96391.27
2019-01-18T22:40:02.657Z,96389.92
2019-01-18T22:43:09.550Z,96389.23
2019-01-18T22:46:22.905Z,96392.30
2019-01-18T22:49:27.295Z,96393.47
2019-01-18T22:53:09.704Z,96390.88
2019-01-18T22:56:05.962Z,96394.55
2019-01-18T22:59:33.297Z,96395.84
2019-01-18T23:02:55.859Z,96399.00
2019-01-18T23:05:59.345Z,96397.56
2019-01-18T23:09:25.631Z,96395.36
2019-01-18T23:12:24.070Z,96385.26
2019-01-18T23:15:51.304Z,96391.95
2019-01-18T23:18:33.013Z,96389.78
2019-01-18T23:21:40.239Z,96390.13
2019-01-18T23:24:56.503Z,96374.28
2019-01-18T23:28:36.807Z,96373.41
2019-01-18T23:31:39.819Z,96374.50
2019-01-18T23:34:27.227Z,96365.30
2019-01-18T23:37:26.468Z,96362.75
2019-01-18T23:40:25.038Z,96361.75
2019-01-18T23:43:21.757Z,96356.83
2019-01-18T23:46:39.218Z,96358.34
2019-01-18T23:49:41.859Z,96349.13
2019-01-18T23:52:54.971Z,96363.39
2019-01-18T23:55:38.045Z,96360.33
2019-01-18T23:58:56.644Z,96358.61
